Terminal Aerodrome Forecast
Issued by NWS

Home | Current Version | Previous Version | Text Only | Print | Product List | Glossary On
Versions: 1 2 3 4 5 6 7 8 9 10 11 12 13 14 15 16 17 18 19 20
956
FTUS42 KTAE 202320
TAFABY
TAF
KABY 202320Z 2100/2124 22007KT 2SM RA BR BKN030
     FM210200 20006KT P6SM OVC015
     FM210600 19004KT 2SM -RA BR OVC005
     FM211000 18005KT 1SM RA BR OVC001
     FM211500 19010G18KT 2SM -RA OVC015
     FM211700 19011G19KT 6SM TSRA OVC025CB=

USA.gov is the U.S. government's official web portal to all federal, state and local government web resources and services.